Time;durP1;ratioP1;P1;durP2;ratioP2;P2;SDS_P1;SDS_P2;PMS_P1;PMS_P2;Temp;Humidity;BMP_temperature;BMP_pressure;BME280_temperature;BME280_humidity;BME280_pressure;Samples;Min_cycle;Max_cycle;Signal;HPM_P1;HPM_P2
2022/06/23 00:00:17;;;;;;;6.13;4.43;;;22.40;99.90;;;;;;5042203;28;20187;-81
2022/06/23 00:02:44;;;;;;;4.60;4.07;;;22.40;99.90;;;;;;5032726;28;20231;-81
2022/06/23 00:05:22;;;;;;;7.72;5.00;;;22.40;99.90;;;;;;5042769;28;21075;-81
2022/06/23 00:08:08;;;;;;;7.20;4.40;;;22.50;99.90;;;;;;5036093;28;20180;-82
2022/06/23 00:10:45;;;;;;;6.28;4.13;;;22.50;99.90;;;;;;5030931;28;20183;-81
2022/06/23 00:13:24;;;;;;;6.30;3.97;;;22.40;99.90;;;;;;5047045;28;20575;-81
2022/06/23 00:16:00;;;;;;;7.90;4.55;;;22.40;99.90;;;;;;5039694;28;20184;-81
2022/06/23 00:18:37;;;;;;;8.48;4.70;;;22.40;99.90;;;;;;5048944;28;20199;-81
2022/06/23 00:21:25;;;;;;;7.07;4.22;;;22.50;99.90;;;;;;5035961;28;20190;-81
2022/06/23 00:24:00;;;;;;;9.15;4.38;;;22.50;99.90;;;;;;5043086;28;20192;-81
2022/06/23 00:26:32;;;;;;;6.93;4.32;;;22.50;99.90;;;;;;5019131;28;20206;-81
2022/06/23 00:29:10;;;;;;;5.53;4.67;;;22.50;99.90;;;;;;5034233;28;20517;-81
2022/06/23 00:31:42;;;;;;;7.10;4.32;;;22.50;99.90;;;;;;5032264;28;20218;-81
2022/06/23 00:34:38;;;;;;;6.40;4.40;;;22.40;99.90;;;;;;5039544;28;20200;-81
2022/06/23 00:37:17;;;;;;;9.65;4.90;;;22.40;99.90;;;;;;5026922;28;20571;-81
2022/06/23 00:39:57;;;;;;;9.82;4.78;;;22.40;99.90;;;;;;5034291;28;20559;-81
2022/06/23 00:43:02;;;;;;;7.40;4.40;;;22.40;99.90;;;;;;5045877;28;20195;-81
2022/06/23 00:45:44;;;;;;;5.28;4.20;;;22.40;99.90;;;;;;5046721;28;20188;-81
2022/06/23 00:48:27;;;;;;;7.18;4.25;;;22.40;99.90;;;;;;5042878;28;20179;-81
2022/06/23 00:51:14;;;;;;;6.72;4.47;;;22.40;99.90;;;;;;5053375;28;20258;-82
2022/06/23 00:53:57;;;;;;;7.70;4.72;;;22.30;99.90;;;;;;5031486;28;20187;-81
2022/06/23 00:56:45;;;;;;;5.15;4.28;;;22.30;99.90;;;;;;5045437;28;20246;-81
2022/06/23 00:59:23;;;;;;;9.45;4.32;;;22.30;99.90;;;;;;5018028;28;20180;-81
2022/06/23 01:01:59;;;;;;;8.85;4.65;;;22.20;99.90;;;;;;5048065;28;20188;-81
2022/06/23 01:04:45;;;;;;;6.30;4.43;;;22.20;99.90;;;;;;5030119;28;20200;-81
2022/06/23 01:07:54;;;;;;;5.18;4.25;;;22.30;99.90;;;;;;5035665;28;20188;-81
2022/06/23 01:10:43;;;;;;;5.22;4.43;;;22.30;99.90;;;;;;5054243;28;20242;-81
2022/06/23 01:13:37;;;;;;;8.05;4.68;;;22.20;99.90;;;;;;5042426;28;20183;-81
2022/06/23 01:16:24;;;;;;;5.28;4.30;;;22.30;99.90;;;;;;5029875;28;20233;-81
2022/06/23 01:18:59;;;;;;;6.70;4.40;;;22.30;99.90;;;;;;5034797;28;20183;-81
2022/06/23 01:21:36;;;;;;;6.95;4.10;;;22.30;99.90;;;;;;5036552;28;20218;-81
2022/06/23 01:24:23;;;;;;;5.22;4.20;;;22.30;99.90;;;;;;5045345;28;20199;-81
2022/06/23 01:27:17;;;;;;;5.13;4.55;;;22.30;99.90;;;;;;5049283;28;20245;-81
2022/06/23 01:29:51;;;;;;;5.97;4.50;;;22.20;99.90;;;;;;5055652;28;20184;-80
2022/06/23 01:32:52;;;;;;;6.03;3.97;;;22.10;99.90;;;;;;5050019;28;20665;-81
2022/06/23 01:35:51;;;;;;;7.23;4.07;;;22.10;99.90;;;;;;5044018;28;20194;-81
2022/06/23 01:38:50;;;;;;;6.23;4.33;;;22.10;99.90;;;;;;5036771;28;20191;-82
2022/06/23 01:41:41;;;;;;;6.03;4.50;;;22.00;99.90;;;;;;5029180;28;20179;-81
2022/06/23 01:44:13;;;;;;;7.93;4.30;;;22.00;99.90;;;;;;5052198;28;20207;-81
2022/06/23 01:46:43;;;;;;;6.82;4.00;;;22.00;99.90;;;;;;5036249;28;20210;-81
2022/06/23 01:49:26;;;;;;;6.30;4.65;;;22.00;99.90;;;;;;5022104;28;20275;-81
2022/06/23 01:52:10;;;;;;;6.85;4.90;;;22.00;99.90;;;;;;5033020;28;20763;-81
2022/06/23 01:54:39;;;;;;;7.57;4.47;;;22.00;99.90;;;;;;5033850;28;20273;-81
2022/06/23 01:57:39;;;;;;;7.43;4.47;;;21.90;99.90;;;;;;5053203;28;20276;-81
2022/06/23 02:00:22;;;;;;;5.33;4.43;;;21.90;99.90;;;;;;5036747;28;20184;-82
2022/06/23 02:03:16;;;;;;;7.43;4.03;;;21.80;99.90;;;;;;5033046;28;20273;-81
2022/06/23 02:06:15;;;;;;;9.30;4.50;;;21.90;99.90;;;;;;5040130;28;20223;-81
2022/06/23 02:08:57;;;;;;;5.80;4.43;;;21.90;99.90;;;;;;5053396;28;20180;-81
2022/06/23 02:11:49;;;;;;;6.50;4.67;;;21.90;99.90;;;;;;5052511;28;20187;-81
2022/06/23 02:14:40;;;;;;;5.75;4.22;;;21.90;99.90;;;;;;5053160;28;20222;-81
2022/06/23 02:17:47;;;;;;;8.07;4.33;;;21.90;99.90;;;;;;5045130;28;20191;-81
2022/06/23 02:20:57;;;;;;;5.70;4.35;;;21.80;99.90;;;;;;5035083;28;20244;-81
2022/06/23 02:23:45;;;;;;;5.07;3.93;;;21.80;99.90;;;;;;5048913;28;20227;-81
2022/06/23 02:26:43;;;;;;;6.50;4.50;;;21.70;99.90;;;;;;5069717;28;20192;-81
2022/06/23 02:30:00;;;;;;;5.90;4.70;;;21.70;99.90;;;;;;5047583;28;20275;-81
2022/06/23 02:33:13;;;;;;;6.57;4.20;;;21.70;99.90;;;;;;5004095;28;20216;-82
2022/06/23 02:35:54;;;;;;;6.50;4.27;;;21.70;99.90;;;;;;5046007;28;20275;-81
2022/06/23 02:38:30;;;;;;;6.03;4.47;;;21.60;99.90;;;;;;5033020;28;20203;-81
2022/06/23 02:41:02;;;;;;;8.95;5.03;;;21.60;99.90;;;;;;5040781;28;20629;-81
2022/06/23 02:43:48;;;;;;;5.88;4.88;;;21.60;99.90;;;;;;5040647;28;20218;-81
2022/06/23 02:46:48;;;;;;;7.67;4.40;;;21.60;99.90;;;;;;5040684;28;20720;-81
2022/06/23 02:49:59;;;;;;;5.88;4.63;;;21.60;99.90;;;;;;5047763;28;20194;-81
2022/06/23 02:52:25;;;;;;;8.35;4.93;;;21.70;99.90;;;;;;5043686;28;20176;-80
2022/06/23 02:55:04;;;;;;;9.23;4.80;;;21.70;99.90;;;;;;5032326;28;20222;-81
2022/06/23 02:58:02;;;;;;;7.00;4.73;;;21.70;99.90;;;;;;5047125;28;20648;-81
2022/06/23 03:00:54;;;;;;;6.45;4.72;;;21.60;99.90;;;;;;5031936;28;20188;-81
2022/06/23 03:03:56;;;;;;;8.70;4.60;;;21.60;99.90;;;;;;5026565;28;20684;-80
2022/06/23 03:06:48;;;;;;;8.13;4.50;;;21.60;99.90;;;;;;5031454;28;20192;-81
2022/06/23 03:09:33;;;;;;;7.22;4.22;;;21.60;99.90;;;;;;5031982;28;20207;-81
2022/06/23 03:12:49;;;;;;;6.60;3.83;;;21.50;99.90;;;;;;5044906;28;20270;-82
2022/06/23 03:15:42;;;;;;;4.20;3.80;;;21.50;99.90;;;;;;5034609;28;20184;-81
2022/06/23 03:18:29;;;;;;;4.73;3.60;;;21.60;99.90;;;;;;5032302;28;20667;-81
2022/06/23 03:21:17;;;;;;;6.17;3.40;;;21.60;99.90;;;;;;5048444;28;20195;-81
2022/06/23 03:23:58;;;;;;;7.03;3.40;;;21.70;99.90;;;;;;5033411;28;20235;-81
2022/06/23 03:26:49;;;;;;;10.25;3.75;;;21.70;99.90;;;;;;5035556;28;20215;-81
2022/06/23 03:29:34;;;;;;;5.63;3.23;;;21.60;99.90;;;;;;5048375;28;20190;-81
2022/06/23 03:32:27;;;;;;;7.00;4.17;;;21.60;99.90;;;;;;5048167;28;20191;-81
2022/06/23 03:35:09;;;;;;;7.87;3.90;;;21.60;99.90;;;;;;5015229;28;20553;-81
2022/06/23 03:38:12;;;;;;;7.03;3.70;;;21.60;99.90;;;;;;5023443;28;20336;-81
2022/06/23 03:43:55;;;;;;;4.50;3.60;;;21.60;99.90;;;;;;5042935;28;20264;-82
2022/06/23 03:47:02;;;;;;;5.63;3.97;;;21.50;99.90;;;;;;5018860;28;20180;-81
2022/06/23 03:50:04;;;;;;;5.70;3.60;;;21.50;99.90;;;;;;5014777;28;20278;-81
2022/06/23 03:53:18;;;;;;;7.77;3.60;;;21.60;99.90;;;;;;5050466;28;20192;-81
2022/06/23 03:55:54;;;;;;;5.63;4.00;;;21.60;99.90;;;;;;5036507;28;20313;-81
2022/06/23 03:58:28;;;;;;;7.03;4.10;;;21.60;99.90;;;;;;5033814;28;20236;-81
2022/06/23 04:01:10;;;;;;;8.50;4.60;;;21.50;99.90;;;;;;5039539;28;20187;-81
2022/06/23 04:04:03;;;;;;;5.90;4.37;;;21.60;99.90;;;;;;5039256;28;20207;-81
2022/06/23 04:06:37;;;;;;;6.60;4.40;;;21.60;99.90;;;;;;5063583;28;20199;-81
2022/06/23 04:09:22;;;;;;;5.80;4.60;;;21.60;99.90;;;;;;5041781;28;20667;-81
2022/06/23 04:12:06;;;;;;;5.63;4.47;;;21.60;99.90;;;;;;5041653;28;20184;-82
2022/06/23 04:15:18;;;;;;;5.67;4.30;;;21.60;99.90;;;;;;5033958;28;20210;-81
2022/06/23 04:18:06;;;;;;;10.43;4.60;;;21.70;99.90;;;;;;5034025;28;20198;-81
2022/06/23 04:20:44;;;;;;;5.60;4.60;;;21.70;99.90;;;;;;5021879;28;20741;-81
2022/06/23 04:23:37;;;;;;;9.20;4.60;;;21.80;99.90;;;;;;5044677;28;20233;-81
2022/06/23 04:26:14;;;;;;;7.93;4.67;;;21.80;99.90;;;;;;5050978;28;20184;-82
2022/06/23 04:28:45;;;;;;;7.57;5.00;;;21.90;99.90;;;;;;5051371;28;20672;-81
2022/06/23 04:31:29;;;;;;;8.33;5.50;;;22.00;99.90;;;;;;5043016;28;20187;-82
2022/06/23 04:33:57;;;;;;;8.63;5.70;;;22.30;99.90;;;;;;5054684;28;20219;-81
2022/06/23 04:36:34;;;;;;;9.93;6.10;;;22.50;99.90;;;;;;5049342;28;20938;-81
2022/06/23 04:39:46;;;;;;;11.40;6.40;;;22.70;99.90;;;;;;5034223;28;20187;-81
2022/06/23 04:42:27;;;;;;;11.87;6.80;;;22.70;99.90;;;;;;5019401;28;20202;-82
2022/06/23 04:45:34;;;;;;;15.07;7.75;;;22.90;99.90;;;;;;5014284;28;20203;-81
2022/06/23 04:48:13;;;;;;;12.75;6.30;;;22.90;99.90;;;;;;5015778;28;20190;-82
2022/06/23 04:50:53;;;;;;;12.43;7.03;;;23.00;99.90;;;;;;5048173;28;20717;-81
2022/06/23 04:53:40;;;;;;;13.17;6.90;;;23.00;99.90;;;;;;5030919;28;20203;-81
2022/06/23 04:56:16;;;;;;;13.20;7.10;;;23.10;99.90;;;;;;5047337;28;20195;-81
2022/06/23 04:58:59;;;;;;;13.00;7.22;;;23.10;99.90;;;;;;5030412;28;20188;-82
2022/06/23 05:01:38;;;;;;;8.23;6.10;;;23.20;99.90;;;;;;5030459;28;20188;-82
2022/06/23 05:04:15;;;;;;;10.90;6.50;;;23.20;99.90;;;;;;5039745;28;21015;-81
2022/06/23 05:06:49;;;;;;;15.38;7.10;;;23.20;99.90;;;;;;5040261;28;20683;-82
2022/06/23 05:09:44;;;;;;;10.60;6.22;;;23.30;99.90;;;;;;5030319;28;20188;-82
2022/06/23 05:12:41;;;;;;;11.15;6.45;;;23.40;99.90;;;;;;5043116;28;20200;-82
2022/06/23 05:15:26;;;;;;;14.80;6.68;;;23.50;99.90;;;;;;5013076;28;20246;-82
2022/06/23 05:18:21;;;;;;;8.98;6.82;;;23.60;99.90;;;;;;5035271;28;20183;-81
2022/06/23 05:21:07;;;;;;;14.88;7.60;;;23.80;99.90;;;;;;5035296;28;20196;-81
2022/06/23 05:23:41;;;;;;;12.95;7.07;;;23.80;99.90;;;;;;5050415;28;20253;-81
2022/06/23 05:26:36;;;;;;;14.98;7.07;;;23.80;99.90;;;;;;5047987;28;20600;-82
2022/06/23 05:29:41;;;;;;;13.82;6.60;;;23.80;99.90;;;;;;5033679;28;20716;-82
2022/06/23 05:32:31;;;;;;;10.70;6.63;;;23.80;99.90;;;;;;5041588;28;20195;-82
2022/06/23 05:35:49;;;;;;;15.82;7.30;;;23.90;99.90;;;;;;5039707;28;20275;-82
2022/06/23 05:38:33;;;;;;;11.43;6.72;;;24.20;99.90;;;;;;5035800;28;20192;-81
2022/06/23 05:41:11;;;;;;;11.40;6.22;;;24.30;99.90;;;;;;5043494;28;20225;-82
2022/06/23 05:43:42;;;;;;;9.07;5.45;;;24.40;99.90;;;;;;5037226;28;20250;-82
2022/06/23 05:46:20;;;;;;;7.43;5.22;;;24.50;99.90;;;;;;5060280;28;20195;-82
2022/06/23 05:49:02;;;;;;;10.35;5.72;;;24.60;99.90;;;;;;5029339;28;20191;-82
2022/06/23 05:51:47;;;;;;;9.52;4.90;;;24.60;99.90;;;;;;5032952;28;20180;-81
2022/06/23 05:54:34;;;;;;;9.57;5.50;;;24.60;99.90;;;;;;5041711;28;20214;-82
2022/06/23 05:57:30;;;;;;;7.18;4.97;;;24.60;99.90;;;;;;5044939;28;20241;-82
2022/06/23 06:00:35;;;;;;;6.45;4.95;;;24.60;99.90;;;;;;5035707;28;20250;-83
2022/06/23 06:03:09;;;;;;;9.60;5.60;;;24.70;99.90;;;;;;5032427;28;20290;-82
2022/06/23 06:05:41;;;;;;;7.68;5.13;;;25.00;99.90;;;;;;5041062;28;20194;-83
2022/06/23 06:08:17;;;;;;;11.18;5.70;;;25.00;99.90;;;;;;5016333;28;20180;-83
2022/06/23 06:10:44;;;;;;;10.45;5.18;;;25.10;99.90;;;;;;5034078;28;20256;-82
2022/06/23 06:13:28;;;;;;;11.70;5.65;;;25.10;99.90;;;;;;5068653;28;20183;-83
2022/06/23 06:16:00;;;;;;;10.05;5.30;;;25.20;99.90;;;;;;5039955;28;20228;-83
2022/06/23 06:18:38;;;;;;;8.80;4.78;;;25.30;99.90;;;;;;5048635;28;20238;-82
2022/06/23 06:21:09;;;;;;;7.72;4.10;;;25.30;99.90;;;;;;5034273;28;20196;-82
2022/06/23 06:23:54;;;;;;;6.68;3.80;;;25.40;99.90;;;;;;5036963;28;20203;-83
2022/06/23 06:26:30;;;;;;;7.53;3.72;;;25.50;99.90;;;;;;5035157;28;20283;-82
2022/06/23 06:29:11;;;;;;;8.57;3.20;;;25.60;99.90;;;;;;5032586;28;20188;-82
2022/06/23 06:31:47;;;;;;;6.43;2.70;;;25.60;99.90;;;;;;5050987;28;20175;-82
2022/06/23 06:34:30;;;;;;;6.18;2.67;;;25.60;99.90;;;;;;5034673;28;20222;-83
2022/06/23 06:36:58;;;;;;;3.53;2.40;;;25.60;99.90;;;;;;5044461;28;20176;-82
2022/06/23 06:39:40;;;;;;;6.75;3.33;;;25.70;99.90;;;;;;5034961;28;20266;-83
2022/06/23 06:42:10;;;;;;;6.78;2.75;;;25.70;99.90;;;;;;5034618;28;20536;-83
2022/06/23 06:44:45;;;;;;;4.22;2.60;;;25.90;99.90;;;;;;5051832;28;20184;-82
2022/06/23 06:47:26;;;;;;;6.68;2.75;;;26.00;99.90;;;;;;5038915;28;20180;-82
2022/06/23 06:49:59;;;;;;;5.30;2.10;;;26.40;99.90;;;;;;5034739;28;20179;-82
2022/06/23 06:52:29;;;;;;;5.43;2.45;;;26.50;99.90;;;;;;5048179;28;20211;-79
2022/06/23 06:55:06;;;;;;;3.20;2.15;;;26.40;99.90;;;;;;5033582;28;20180;-82
2022/06/23 06:58:20;;;;;;;6.15;2.75;;;26.60;99.90;;;;;;5021275;28;20187;-83
2022/06/23 07:01:07;;;;;;;5.65;2.63;;;26.80;99.90;;;;;;5056618;28;20286;-83
2022/06/23 07:03:37;;;;;;;5.47;2.60;;;26.80;99.90;;;;;;5031635;28;20195;-83
2022/06/23 07:06:24;;;;;;;8.10;2.53;;;26.80;99.90;;;;;;5030104;28;20226;-82
2022/06/23 07:09:42;;;;;;;10.30;2.60;;;27.20;99.90;;;;;;5030849;28;20580;-79
2022/06/23 07:12:39;;;;;;;13.65;2.25;;;27.40;99.00;;;;;;4996362;28;20184;-80
2022/06/23 07:15:38;;;;;;;10.65;3.60;;;28.10;96.80;;;;;;5010569;28;20223;-83
2022/06/23 07:18:44;;;;;;;8.52;3.42;;;28.50;99.90;;;;;;5037612;28;20278;-83
2022/06/23 07:21:24;;;;;;;7.28;3.55;;;28.60;99.90;;;;;;5032977;28;20196;-82
2022/06/23 07:24:41;;;;;;;13.43;4.20;;;28.70;99.90;;;;;;5058582;28;20208;-82
2022/06/23 07:27:45;;;;;;;6.85;4.00;;;28.60;99.90;;;;;;5032253;28;20249;-82
2022/06/23 07:30:33;;;;;;;9.10;3.70;;;28.70;99.90;;;;;;5046694;28;20179;-81
2022/06/23 07:33:15;;;;;;;9.00;3.70;;;28.90;99.90;;;;;;5042220;28;20231;-81
2022/06/23 07:35:54;;;;;;;7.97;3.30;;;28.80;99.90;;;;;;5033810;28;20556;-81
2022/06/23 07:38:47;;;;;;;7.35;3.38;;;29.00;99.90;;;;;;5038621;28;20237;-80
2022/06/23 07:41:23;;;;;;;6.88;3.35;;;28.90;99.90;;;;;;5036617;28;20278;-82
2022/06/23 07:43:59;;;;;;;6.97;3.17;;;29.10;99.90;;;;;;5040913;28;20217;-82
2022/06/23 07:46:25;;;;;;;7.60;3.40;;;29.30;99.90;;;;;;5028272;28;20175;-81
2022/06/23 07:48:53;;;;;;;6.00;3.30;;;29.30;99.90;;;;;;5047149;28;20648;-82
2022/06/23 07:51:21;;;;;;;7.25;3.15;;;29.30;99.90;;;;;;5038478;28;20187;-82
2022/06/23 07:53:52;;;;;;;10.18;3.58;;;29.30;99.90;;;;;;5044472;28;20188;-82
2022/06/23 07:56:25;;;;;;;9.25;4.00;;;29.30;99.90;;;;;;5035531;28;20217;-82
2022/06/23 07:59:01;;;;;;;7.40;3.67;;;29.30;99.90;;;;;;5013838;28;20296;-82
2022/06/23 08:01:42;;;;;;;6.25;3.80;;;29.40;99.90;;;;;;5030122;28;20241;-81
2022/06/23 08:04:49;;;;;;;12.65;3.88;;;29.40;99.90;;;;;;5032953;28;20261;-83
2022/06/23 08:07:16;;;;;;;6.00;3.85;;;29.50;99.90;;;;;;5026306;28;20198;-83
2022/06/23 08:10:07;;;;;;;7.18;3.90;;;29.50;99.90;;;;;;5048730;28;20176;-82
2022/06/23 08:12:54;;;;;;;12.50;4.40;;;29.40;99.90;;;;;;5042141;28;20233;-81
2022/06/23 08:18:57;;;;;;;7.43;3.65;;;29.40;99.90;;;;;;5047458;28;20936;-82
2022/06/23 08:21:41;;;;;;;11.80;4.38;;;29.60;99.90;;;;;;5052829;28;20188;-81
2022/06/23 08:24:24;;;;;;;11.38;4.47;;;29.60;99.90;;;;;;5033120;28;20214;-81
2022/06/23 08:27:19;;;;;;;7.13;4.07;;;29.60;99.90;;;;;;5048682;28;20640;-82
2022/06/23 08:30:14;;;;;;;5.72;3.50;;;29.60;99.90;;;;;;5046711;28;20180;-81
2022/06/23 08:32:51;;;;;;;8.88;3.47;;;29.80;99.90;;;;;;5039856;28;20273;-82
2022/06/23 08:35:38;;;;;;;6.80;3.65;;;29.80;99.90;;;;;;5031751;28;20571;-81
2022/06/23 08:38:49;;;;;;;8.40;3.28;;;30.00;99.90;;;;;;5037515;28;20186;-81
2022/06/23 08:41:27;;;;;;;8.35;3.50;;;30.10;99.90;;;;;;5052130;28;20277;-81
2022/06/23 08:44:05;;;;;;;8.00;3.30;;;30.10;99.90;;;;;;5034289;28;20280;-82
2022/06/23 08:47:09;;;;;;;9.45;3.30;;;30.10;99.90;;;;;;5053818;28;20221;-81
2022/06/23 08:49:44;;;;;;;9.27;3.45;;;30.30;99.90;;;;;;5039112;28;20270;-81
2022/06/23 08:53:02;;;;;;;4.10;3.38;;;30.40;99.90;;;;;;5034453;28;20184;-81
2022/06/23 08:55:43;;;;;;;5.65;3.20;;;30.50;99.90;;;;;;5023808;28;20214;-81
2022/06/23 08:58:41;;;;;;;6.88;3.40;;;30.60;99.90;;;;;;5033276;28;20215;-80
2022/06/23 09:01:28;;;;;;;6.00;3.42;;;30.70;99.90;;;;;;5027431;28;20187;-80
2022/06/23 09:04:09;;;;;;;4.85;3.15;;;30.80;99.90;;;;;;5031722;28;20210;-82
2022/06/23 09:07:33;;;;;;;10.43;3.28;;;31.00;99.90;;;;;;5032671;28;20675;-82
2022/06/23 09:10:29;;;;;;;6.05;3.50;;;31.20;99.30;;;;;;5041108;28;20187;-83
2022/06/23 09:13:29;;;;;;;8.45;3.40;;;31.20;99.90;;;;;;5030947;28;20668;-83
2022/06/23 09:16:28;;;;;;;7.20;3.70;;;31.30;99.90;;;;;;5047105;28;20571;-83
2022/06/23 09:19:32;;;;;;;11.52;3.90;;;31.20;99.90;;;;;;5022253;28;20275;-83
2022/06/23 09:22:43;;;;;;;6.07;3.67;;;31.30;99.90;;;;;;5036059;28;20281;-81
2022/06/23 09:26:01;;;;;;;7.07;3.60;;;31.40;98.30;;;;;;5018597;28;20192;-80
2022/06/23 09:28:51;;;;;;;5.60;3.45;;;31.50;97.30;;;;;;5047199;28;20180;-83
2022/06/23 09:31:44;;;;;;;9.52;3.30;;;31.80;96.30;;;;;;5044409;28;20194;-83
2022/06/23 09:34:56;;;;;;;8.18;3.70;;;31.80;93.20;;;;;;5028031;28;20948;-82
2022/06/23 09:37:50;;;;;;;6.80;2.80;;;32.00;94.10;;;;;;5037558;28;20664;-83
2022/06/23 09:40:56;;;;;;;7.18;3.20;;;32.10;90.30;;;;;;5030047;28;20203;-82
2022/06/23 09:44:27;;;;;;;5.22;3.63;;;32.20;90.80;;;;;;5022958;28;20691;-83
2022/06/23 09:47:08;;;;;;;7.13;3.40;;;32.20;92.00;;;;;;5030553;28;20225;-84
2022/06/23 09:50:07;;;;;;;6.80;3.25;;;32.40;89.70;;;;;;5022942;28;20191;-82
2022/06/23 09:52:55;;;;;;;6.70;3.10;;;32.40;88.60;;;;;;5044183;28;20180;-82
2022/06/23 09:55:31;;;;;;;5.78;2.90;;;32.40;87.40;;;;;;5022755;28;20211;-82
2022/06/23 09:58:18;;;;;;;4.80;3.20;;;32.40;86.90;;;;;;5034043;28;20192;-82
2022/06/23 10:01:24;;;;;;;7.25;3.22;;;32.50;86.30;;;;;;5046956;28;20264;-82
2022/06/23 10:04:26;;;;;;;5.82;2.88;;;32.60;85.20;;;;;;5029631;28;20571;-83
2022/06/23 10:06:56;;;;;;;8.13;2.83;;;32.60;86.20;;;;;;5039562;28;20198;-81
2022/06/23 10:09:36;;;;;;;3.75;2.63;;;32.80;84.00;;;;;;5025385;28;20180;-82
2022/06/23 10:12:36;;;;;;;4.80;3.20;;;32.70;84.30;;;;;;5030080;28;20188;-82
2022/06/23 10:16:05;;;;;;;7.38;3.53;;;32.70;84.40;;;;;;5037546;28;20278;-82
2022/06/23 10:19:12;;;;;;;5.90;3.03;;;32.90;84.30;;;;;;5034456;28;20186;-82
2022/06/23 10:22:20;;;;;;;8.50;3.50;;;33.00;82.90;;;;;;5022691;28;20620;-82
2022/06/23 10:25:08;;;;;;;6.80;3.03;;;33.00;81.30;;;;;;5050729;28;20195;-83
2022/06/23 10:31:43;;;;;;;7.00;3.20;;;33.10;82.80;;;;;;5038345;28;20215;-82
2022/06/23 10:34:32;;;;;;;4.07;3.47;;;33.30;82.10;;;;;;5021592;28;20269;-81
2022/06/23 10:37:33;;;;;;;6.38;2.90;;;33.30;80.70;;;;;;5041495;28;20206;-82
2022/06/23 10:40:43;;;;;;;6.22;3.25;;;33.20;81.10;;;;;;5041978;28;20191;-82
2022/06/23 10:43:45;;;;;;;10.20;3.20;;;33.30;81.10;;;;;;5031521;28;20866;-82
2022/06/23 10:46:37;;;;;;;4.82;3.17;;;33.20;80.20;;;;;;5037542;28;20190;-83
2022/06/23 10:49:39;;;;;;;4.72;3.20;;;33.20;80.90;;;;;;5038205;28;20234;-82
2022/06/23 10:52:35;;;;;;;6.50;3.03;;;33.10;79.30;;;;;;5037463;28;20183;-82
2022/06/23 10:55:33;;;;;;;4.82;3.20;;;33.10;80.80;;;;;;5057184;28;20243;-82
2022/06/23 10:58:27;;;;;;;10.20;3.15;;;33.10;82.00;;;;;;5044252;28;20548;-82
2022/06/23 11:01:08;;;;;;;8.38;3.08;;;33.10;80.50;;;;;;5029936;28;20620;-81
2022/06/23 11:04:02;;;;;;;8.85;3.03;;;32.90;80.30;;;;;;5045534;28;20539;-82
2022/06/23 11:06:58;;;;;;;6.15;3.40;;;33.00;80.30;;;;;;5032456;28;20555;-82
2022/06/23 11:10:08;;;;;;;4.82;3.10;;;32.80;81.70;;;;;;5044402;28;20253;-82
2022/06/23 11:12:50;;;;;;;9.80;3.22;;;32.70;80.00;;;;;;5030775;28;20192;-86
2022/06/23 11:15:36;;;;;;;9.05;3.00;;;32.90;81.40;;;;;;5023433;28;20192;-83
2022/06/23 11:18:30;;;;;;;7.70;3.33;;;32.80;81.10;;;;;;5045911;28;20207;-82
2022/06/23 11:21:38;;;;;;;3.90;2.95;;;32.70;79.20;;;;;;5054565;28;20194;-82
2022/06/23 11:24:17;;;;;;;6.22;3.08;;;32.60;79.90;;;;;;5020249;28;20203;-83
2022/06/23 11:27:18;;;;;;;4.60;2.53;;;32.80;80.00;;;;;;5034943;28;20290;-82
2022/06/23 11:30:02;;;;;;;10.48;3.30;;;32.70;79.10;;;;;;5035561;28;20690;-81
2022/06/23 11:33:21;;;;;;;5.40;2.95;;;32.80;79.10;;;;;;5030787;28;20687;-83
2022/06/23 11:36:04;;;;;;;7.18;2.97;;;32.80;82.10;;;;;;5036894;28;20284;-83
2022/06/23 11:39:22;;;;;;;10.25;3.38;;;32.70;79.00;;;;;;5040286;28;20330;-83
2022/06/23 11:42:12;;;;;;;6.97;2.80;;;32.80;79.70;;;;;;5029146;28;20320;-83
2022/06/23 11:45:03;;;;;;;8.65;3.20;;;32.80;78.20;;;;;;5025212;28;20322;-83
2022/06/23 11:48:13;;;;;;;4.90;3.03;;;32.70;78.30;;;;;;5022636;28;20196;-84
2022/06/23 11:51:11;;;;;;;9.10;3.35;;;32.60;79.10;;;;;;5028315;28;20187;-80
2022/06/23 11:54:21;;;;;;;8.65;3.00;;;32.60;77.60;;;;;;5039484;28;20188;-80
2022/06/23 11:57:30;;;;;;;3.72;3.00;;;32.40;80.30;;;;;;5028399;28;20188;-81
2022/06/23 12:00:06;;;;;;;7.07;3.20;;;32.30;79.90;;;;;;5044933;28;20191;-81
2022/06/23 12:03:08;;;;;;;5.95;2.88;;;32.20;80.90;;;;;;5022296;28;20267;-81
2022/06/23 12:14:25;;;;;;;9.73;3.53;;;32.10;81.10;;;;;;4949475;28;20291;-75
2022/06/23 12:17:01;;;;;;;10.45;3.25;;;32.20;80.30;;;;;;4947920;28;20198;-74
2022/06/23 12:20:06;;;;;;;4.50;3.28;;;32.30;80.20;;;;;;4942068;28;20213;-73
2022/06/23 12:22:49;;;;;;;9.30;4.32;;;32.20;81.90;;;;;;4942567;28;20222;-74
2022/06/23 12:25:53;;;;;;;7.95;3.70;;;32.00;83.10;;;;;;4972692;28;20190;-75
2022/06/23 12:28:53;;;;;;;5.88;3.40;;;31.90;83.60;;;;;;4961412;28;20247;-74
2022/06/23 12:31:48;;;;;;;6.85;3.72;;;31.80;83.40;;;;;;4978671;28;20669;-73
2022/06/23 12:34:37;;;;;;;5.63;3.35;;;31.60;83.30;;;;;;4966433;28;20197;-74
2022/06/23 12:37:57;;;;;;;7.82;3.90;;;31.40;84.80;;;;;;4983766;28;20216;-75
2022/06/23 12:40:55;;;;;;;5.05;3.45;;;31.50;84.00;;;;;;4980600;28;20200;-74
2022/06/23 12:43:52;;;;;;;6.00;3.47;;;31.50;83.80;;;;;;4960506;28;20574;-74
2022/06/23 12:46:32;;;;;;;6.93;3.33;;;31.60;80.80;;;;;;4980136;28;20857;-74
2022/06/23 12:49:33;;;;;;;6.35;3.45;;;31.60;81.60;;;;;;4967627;28;20205;-75
2022/06/23 12:52:33;;;;;;;5.22;3.30;;;31.70;83.30;;;;;;4979836;28;20252;-75
2022/06/23 12:55:27;;;;;;;8.65;3.15;;;31.80;82.10;;;;;;4977548;28;20197;-76
2022/06/23 12:58:28;;;;;;;6.07;3.30;;;32.00;83.70;;;;;;4978039;28;20226;-74
2022/06/23 13:01:13;;;;;;;13.63;3.58;;;32.00;86.00;;;;;;4952015;28;20189;-74
2022/06/23 13:04:11;;;;;;;6.05;3.53;;;32.00;86.30;;;;;;4954921;28;20208;-75
2022/06/23 13:06:44;;;;;;;7.43;3.58;;;31.90;84.50;;;;;;4955608;28;20563;-75
2022/06/23 13:09:47;;;;;;;5.95;3.30;;;31.80;88.10;;;;;;4976753;28;20202;-75
2022/06/23 13:12:52;;;;;;;6.97;3.47;;;31.60;84.70;;;;;;4960245;28;22197;-75
2022/06/23 13:15:47;;;;;;;6.38;3.60;;;31.50;85.00;;;;;;4936776;28;20228;-75
2022/06/23 13:18:42;;;;;;;7.88;3.85;;;31.50;88.50;;;;;;4936898;28;20784;-75
2022/06/23 13:21:23;;;;;;;6.45;3.55;;;31.50;84.40;;;;;;4953379;29;20222;-74
2022/06/23 13:24:02;;;;;;;8.02;3.42;;;31.50;84.20;;;;;;4950982;28;20206;-74
2022/06/23 13:26:38;;;;;;;7.15;3.60;;;31.40;85.30;;;;;;4960746;28;20181;-75
2022/06/23 13:29:23;;;;;;;7.57;3.50;;;31.40;83.30;;;;;;4954498;28;20178;-74
2022/06/23 13:32:01;;;;;;;6.40;3.28;;;31.30;85.60;;;;;;4966386;28;20191;-75
2022/06/23 13:34:32;;;;;;;6.20;3.38;;;31.20;86.90;;;;;;4953994;28;20655;-75
2022/06/23 13:37:22;;;;;;;6.40;3.78;;;31.20;84.50;;;;;;4942628;29;20195;-75
2022/06/23 13:39:55;;;;;;;6.57;3.55;;;31.30;86.10;;;;;;4966088;28;20201;-75
2022/06/23 13:43:11;;;;;;;5.47;3.75;;;31.20;87.60;;;;;;4950037;28;20309;-75
2022/06/23 13:45:54;;;;;;;4.97;3.67;;;31.10;87.60;;;;;;4962979;28;20206;-74
2022/06/23 13:48:51;;;;;;;6.70;3.80;;;31.10;88.10;;;;;;4952390;28;20705;-74
2022/06/23 13:51:42;;;;;;;5.95;3.50;;;31.20;87.60;;;;;;4948203;29;20249;-74
2022/06/23 13:54:37;;;;;;;7.20;3.85;;;31.20;86.50;;;;;;4938255;29;20204;-74
2022/06/23 13:57:41;;;;;;;6.25;3.80;;;31.10;87.40;;;;;;4960581;28;20202;-75
2022/06/23 14:00:28;;;;;;;7.30;3.67;;;30.90;88.30;;;;;;4962758;28;20252;-75
2022/06/23 14:03:20;;;;;;;7.68;3.97;;;30.80;88.70;;;;;;4951221;28;20242;-74
2022/06/23 14:06:04;;;;;;;5.13;3.40;;;30.60;88.50;;;;;;4952123;29;20195;-75
2022/06/23 14:08:39;;;;;;;7.25;3.45;;;30.70;88.60;;;;;;4957336;28;20182;-75
2022/06/23 14:11:37;;;;;;;5.78;3.50;;;30.80;87.10;;;;;;4963576;28;20610;-75
2022/06/23 14:14:36;;;;;;;4.90;3.70;;;30.90;86.70;;;;;;4950293;28;20191;-75
2022/06/23 14:17:55;;;;;;;7.05;3.67;;;30.80;85.90;;;;;;4957809;28;20231;-74
2022/06/23 14:21:26;;;;;;;6.65;3.78;;;30.70;88.10;;;;;;4943530;29;20195;-75
2022/06/23 14:24:25;;;;;;;7.95;3.83;;;30.60;86.10;;;;;;4953794;28;20218;-74
2022/06/23 14:27:20;;;;;;;8.35;3.75;;;30.60;85.30;;;;;;4954149;28;20209;-75
2022/06/23 14:30:18;;;;;;;6.28;3.45;;;30.50;86.40;;;;;;4947957;28;21040;-75
2022/06/23 14:33:21;;;;;;;9.18;3.17;;;30.50;85.60;;;;;;4954939;28;20669;-75
2022/06/23 14:36:27;;;;;;;6.50;3.60;;;30.50;86.60;;;;;;4947668;29;20194;-75
2022/06/23 14:39:39;;;;;;;6.35;4.00;;;30.40;86.30;;;;;;4921307;29;20226;-74
2022/06/23 14:42:52;;;;;;;8.32;3.97;;;30.40;86.00;;;;;;4956929;28;20186;-75
2022/06/23 14:45:58;;;;;;;8.25;3.75;;;30.20;87.80;;;;;;4956594;28;20199;-75
2022/06/23 14:48:54;;;;;;;7.60;3.50;;;30.20;86.80;;;;;;4950914;28;20225;-75
2022/06/23 14:52:14;;;;;;;5.07;3.83;;;30.20;85.60;;;;;;4947370;28;20191;-75
2022/06/23 14:55:12;;;;;;;5.00;3.92;;;30.10;86.90;;;;;;4945296;28;20226;-75
2022/06/23 14:57:48;;;;;;;7.68;3.53;;;30.00;85.70;;;;;;4950192;29;20278;-75
2022/06/23 15:00:32;;;;;;;5.85;3.67;;;30.00;86.10;;;;;;4946683;28;20823;-74